Time;durP1;ratioP1;P1;durP2;ratioP2;P2;SDS_P1;SDS_P2;PMS_P1;PMS_P2;Temp;Humidity;BMP_temperature;BMP_pressure;BME280_temperature;BME280_humidity;BME280_pressure;Samples;Min_cycle;Max_cycle;Signal;HPM_P1;HPM_P2
2021/10/27 00:00:50;;;;;;;16.05;7.40;;;14.20;97.30;;;;;;5012155;28;20069;-74
2021/10/27 00:03:16;;;;;;;14.20;6.82;;;14.20;97.30;;;;;;5010449;28;20029;-76
2021/10/27 00:05:41;;;;;;;13.50;7.38;;;14.20;97.30;;;;;;5012101;28;20097;-74
2021/10/27 00:08:07;;;;;;;14.45;7.75;;;14.20;97.30;;;;;;5012231;28;20057;-74
2021/10/27 00:10:33;;;;;;;10.95;6.40;;;14.20;97.30;;;;;;5010301;28;20088;-74
2021/10/27 00:12:59;;;;;;;13.65;6.85;;;14.20;97.30;;;;;;5010872;28;20349;-74
2021/10/27 00:15:25;;;;;;;10.32;5.45;;;14.20;97.30;;;;;;5011573;28;20088;-75
2021/10/27 00:17:51;;;;;;;12.02;6.30;;;14.20;97.40;;;;;;5010837;28;20071;-74
2021/10/27 00:20:17;;;;;;;12.95;7.60;;;14.30;97.40;;;;;;5010333;28;20124;-75
2021/10/27 00:22:42;;;;;;;13.88;7.40;;;14.30;97.40;;;;;;5010837;28;20045;-74
2021/10/27 00:25:09;;;;;;;14.05;7.57;;;14.30;97.40;;;;;;5012110;28;20338;-75
2021/10/27 00:27:35;;;;;;;12.27;6.32;;;14.30;97.40;;;;;;5010191;28;20014;-74
2021/10/27 00:30:01;;;;;;;11.07;6.80;;;14.30;97.40;;;;;;5012172;28;20025;-74
2021/10/27 00:32:27;;;;;;;10.88;6.15;;;14.30;97.40;;;;;;5011235;28;20018;-75
2021/10/27 00:34:53;;;;;;;13.88;7.55;;;14.40;97.40;;;;;;5011828;28;20427;-74
2021/10/27 00:37:19;;;;;;;14.45;7.35;;;14.30;97.40;;;;;;5010084;28;20021;-75
2021/10/27 00:39:48;;;;;;;16.08;7.75;;;14.30;97.50;;;;;;5011956;28;20049;-75
2021/10/27 00:42:14;;;;;;;16.27;7.82;;;14.30;97.50;;;;;;5012182;28;20025;-75
2021/10/27 00:44:41;;;;;;;14.90;7.70;;;14.40;97.50;;;;;;5008990;28;20042;-75
2021/10/27 00:47:09;;;;;;;11.70;6.80;;;14.40;97.50;;;;;;5010595;28;20398;-75
2021/10/27 00:49:38;;;;;;;14.43;6.63;;;14.40;97.50;;;;;;5011370;28;20018;-75
2021/10/27 00:52:07;;;;;;;12.63;6.90;;;14.40;97.50;;;;;;5011946;28;20419;-75
2021/10/27 00:54:34;;;;;;;16.38;7.63;;;14.40;97.50;;;;;;5011281;28;20028;-74
2021/10/27 00:57:02;;;;;;;14.88;7.65;;;14.40;97.50;;;;;;5011648;28;20049;-74
2021/10/27 00:59:28;;;;;;;18.80;8.63;;;14.50;97.60;;;;;;5010989;28;20427;-73
2021/10/27 01:01:56;;;;;;;15.32;8.07;;;14.40;97.60;;;;;;5010527;28;20402;-74
2021/10/27 01:04:22;;;;;;;14.90;7.47;;;14.40;97.60;;;;;;5009798;28;20037;-75
2021/10/27 01:06:49;;;;;;;13.55;6.95;;;14.40;97.70;;;;;;5011853;28;20022;-75
2021/10/27 01:09:15;;;;;;;14.23;7.18;;;14.40;97.70;;;;;;5010377;28;20018;-74
2021/10/27 01:11:41;;;;;;;14.90;8.38;;;14.40;97.70;;;;;;5011114;28;20077;-74
2021/10/27 01:14:09;;;;;;;12.35;7.47;;;14.40;97.80;;;;;;5011631;28;20026;-74
2021/10/27 01:16:35;;;;;;;14.40;6.82;;;14.40;97.80;;;;;;5011272;28;20068;-75
2021/10/27 01:19:01;;;;;;;17.48;7.20;;;14.40;97.80;;;;;;5014034;28;20112;-75
2021/10/27 01:21:29;;;;;;;14.52;8.00;;;14.40;97.80;;;;;;5014665;28;20018;-75
2021/10/27 01:23:59;;;;;;;13.65;7.32;;;14.40;97.90;;;;;;5030480;28;20362;-75
2021/10/27 01:26:26;;;;;;;14.80;7.43;;;14.40;97.90;;;;;;5029730;28;20366;-75
2021/10/27 01:28:52;;;;;;;16.48;7.82;;;14.40;97.90;;;;;;5030247;28;20026;-75
2021/10/27 01:31:18;;;;;;;14.55;7.07;;;14.40;97.90;;;;;;5015066;28;20068;-75
2021/10/27 01:33:44;;;;;;;15.63;8.10;;;14.40;98.00;;;;;;5012979;28;20021;-74
2021/10/27 01:36:15;;;;;;;12.77;7.57;;;14.40;98.00;;;;;;5013691;28;20024;-75
2021/10/27 01:38:40;;;;;;;11.90;7.03;;;14.40;98.10;;;;;;5013020;28;20339;-75
2021/10/27 01:41:06;;;;;;;13.43;6.20;;;14.40;98.10;;;;;;5013458;28;20045;-75
2021/10/27 01:43:47;;;;;;;12.57;6.85;;;14.40;98.10;;;;;;5013748;28;20070;-75
2021/10/27 01:46:12;;;;;;;14.27;7.30;;;14.40;98.10;;;;;;5013574;28;20105;-74
2021/10/27 01:48:38;;;;;;;12.77;7.47;;;14.40;98.10;;;;;;5013885;28;20410;-74
2021/10/27 01:51:04;;;;;;;10.35;5.93;;;14.40;98.10;;;;;;5014374;28;20534;-74
2021/10/27 01:53:29;;;;;;;12.43;6.65;;;14.40;98.40;;;;;;5014044;28;20026;-74
2021/10/27 01:55:56;;;;;;;12.52;6.22;;;14.40;98.10;;;;;;5014641;28;20024;-75
2021/10/27 01:58:21;;;;;;;10.63;5.95;;;14.40;98.20;;;;;;5014474;28;20461;-73
2021/10/27 02:00:47;;;;;;;11.05;5.93;;;14.40;98.20;;;;;;5013846;28;20026;-74
2021/10/27 02:03:13;;;;;;;13.50;6.43;;;14.30;98.20;;;;;;5014514;28;20037;-74
2021/10/27 02:05:38;;;;;;;12.75;6.45;;;14.30;98.30;;;;;;5012147;28;20034;-74
2021/10/27 02:08:04;;;;;;;14.10;6.25;;;14.30;98.30;;;;;;5029555;28;20442;-75
2021/10/27 02:10:30;;;;;;;12.27;6.30;;;14.30;98.40;;;;;;5013858;28;20295;-74
2021/10/27 02:12:56;;;;;;;14.15;7.43;;;14.30;98.40;;;;;;5013960;28;20026;-73
2021/10/27 02:15:21;;;;;;;12.88;5.82;;;14.30;98.40;;;;;;5014224;28;20065;-75
2021/10/27 02:17:47;;;;;;;11.27;6.03;;;14.40;98.40;;;;;;5013621;28;20504;-76
2021/10/27 02:20:14;;;;;;;14.38;6.57;;;14.40;98.40;;;;;;5012911;28;20014;-75
2021/10/27 02:22:40;;;;;;;9.43;6.13;;;14.40;98.30;;;;;;5012092;28;20021;-75
2021/10/27 02:25:06;;;;;;;10.75;5.88;;;14.40;98.40;;;;;;5013912;28;20101;-76
2021/10/27 02:27:32;;;;;;;11.27;5.88;;;14.40;98.40;;;;;;5013464;28;20032;-76
2021/10/27 02:29:57;;;;;;;8.50;4.95;;;14.40;98.40;;;;;;5013220;28;20018;-76
2021/10/27 02:32:23;;;;;;;11.23;5.93;;;14.40;98.40;;;;;;5014032;28;20370;-76
2021/10/27 02:34:49;;;;;;;11.02;6.00;;;14.50;98.40;;;;;;5013472;28;20029;-74
2021/10/27 02:37:15;;;;;;;10.23;6.00;;;14.50;98.40;;;;;;5013618;28;20063;-76
2021/10/27 02:39:40;;;;;;;10.13;5.60;;;14.50;98.30;;;;;;5013020;28;20058;-75
2021/10/27 02:42:07;;;;;;;9.02;4.60;;;14.50;98.30;;;;;;5013737;28;20044;-75
2021/10/27 02:44:33;;;;;;;12.80;5.88;;;14.50;98.30;;;;;;5002039;28;20022;-76
2021/10/27 02:46:59;;;;;;;12.85;5.75;;;14.60;98.30;;;;;;4994382;28;20085;-75
2021/10/27 02:49:24;;;;;;;7.90;4.53;;;14.50;98.30;;;;;;5009116;28;20026;-75
2021/10/27 02:51:50;;;;;;;8.50;4.90;;;14.60;98.30;;;;;;4993094;28;20030;-74
2021/10/27 02:54:16;;;;;;;10.07;4.88;;;14.60;98.30;;;;;;5009117;28;20466;-74
2021/10/27 02:56:42;;;;;;;9.90;4.78;;;14.60;98.30;;;;;;4993401;28;20469;-75
2021/10/27 02:59:07;;;;;;;11.75;5.05;;;14.60;98.20;;;;;;5008801;28;20518;-75
2021/10/27 03:01:33;;;;;;;7.50;4.57;;;14.60;98.20;;;;;;4991965;28;20102;-75
2021/10/27 03:04:00;;;;;;;8.32;4.07;;;14.60;98.20;;;;;;4993919;28;20060;-74
2021/10/27 03:06:26;;;;;;;7.63;3.72;;;14.60;98.20;;;;;;5008458;28;20026;-75
2021/10/27 03:08:52;;;;;;;7.95;4.78;;;14.60;98.20;;;;;;4992792;28;20023;-74
2021/10/27 03:11:17;;;;;;;8.27;4.57;;;14.60;98.20;;;;;;4993616;28;20022;-74
2021/10/27 03:13:43;;;;;;;13.07;4.43;;;14.60;98.20;;;;;;4993181;28;20447;-75
2021/10/27 03:16:09;;;;;;;8.00;4.28;;;14.60;98.20;;;;;;4993790;28;20101;-77
2021/10/27 03:18:34;;;;;;;7.15;4.00;;;14.60;98.20;;;;;;4996370;28;20501;-75
2021/10/27 03:21:00;;;;;;;7.13;3.45;;;14.60;98.20;;;;;;5001341;28;20033;-75
2021/10/27 03:23:26;;;;;;;6.45;3.45;;;14.60;98.20;;;;;;5004521;28;20030;-76
2021/10/27 03:25:52;;;;;;;7.75;3.60;;;14.60;98.20;;;;;;5010101;28;20030;-76
2021/10/27 03:28:18;;;;;;;6.32;3.45;;;14.60;98.20;;;;;;5003270;28;20022;-76
2021/10/27 03:30:43;;;;;;;6.60;3.30;;;14.60;98.20;;;;;;5010357;28;20109;-76
2021/10/27 03:33:09;;;;;;;6.65;3.22;;;14.60;98.20;;;;;;5010895;28;20018;-76
2021/10/27 03:35:35;;;;;;;8.80;3.55;;;14.60;98.20;;;;;;5008193;28;20022;-76
2021/10/27 03:38:01;;;;;;;7.80;3.63;;;14.50;98.20;;;;;;5002099;28;20084;-74
2021/10/27 03:40:26;;;;;;;5.85;3.08;;;14.60;98.20;;;;;;5010684;28;20054;-75
2021/10/27 03:42:52;;;;;;;9.32;3.38;;;14.50;98.20;;;;;;5012211;28;20032;-74
2021/10/27 03:45:18;;;;;;;6.93;3.03;;;14.50;98.20;;;;;;5012385;28;20028;-73
2021/10/27 03:51:08;;;;;;;7.38;3.63;;;14.50;98.20;;;;;;4992928;28;20021;-75
2021/10/27 03:53:34;;;;;;;6.80;3.17;;;14.50;98.10;;;;;;4992304;28;20018;-75
2021/10/27 03:55:59;;;;;;;9.40;2.83;;;14.60;98.10;;;;;;5008287;28;20021;-75
2021/10/27 03:58:25;;;;;;;4.95;2.60;;;14.60;98.10;;;;;;4992984;28;20027;-74
2021/10/27 04:00:51;;;;;;;4.95;2.33;;;14.60;98.10;;;;;;4988865;28;20044;-74
2021/10/27 04:03:21;;;;;;;5.57;3.28;;;14.60;98.10;;;;;;5005614;28;20146;-74
2021/10/27 04:05:47;;;;;;;5.13;2.08;;;14.60;98.10;;;;;;5004996;28;20018;-74
2021/10/27 04:08:13;;;;;;;5.65;2.00;;;14.60;98.10;;;;;;5010136;28;20024;-74
2021/10/27 04:10:38;;;;;;;6.50;2.38;;;14.60;98.00;;;;;;5008221;28;20408;-75
2021/10/27 04:13:04;;;;;;;5.55;2.42;;;14.60;98.00;;;;;;5008598;28;20076;-74
2021/10/27 04:15:30;;;;;;;8.93;2.75;;;14.60;98.00;;;;;;5010160;28;20034;-74
2021/10/27 04:17:55;;;;;;;4.97;2.38;;;14.60;98.00;;;;;;5009260;28;20034;-76
2021/10/27 04:20:21;;;;;;;3.75;2.30;;;14.60;98.00;;;;;;5010177;28;20072;-75
2021/10/27 04:22:47;;;;;;;7.63;2.40;;;14.70;98.00;;;;;;5009401;28;20032;-74
2021/10/27 04:25:12;;;;;;;6.45;2.53;;;14.60;97.90;;;;;;5008329;28;20026;-75
2021/10/27 04:27:39;;;;;;;9.25;3.13;;;14.60;98.00;;;;;;5005356;28;20064;-76
2021/10/27 04:30:07;;;;;;;5.75;2.58;;;14.60;97.90;;;;;;5023404;28;20142;-75
2021/10/27 04:32:33;;;;;;;7.07;2.40;;;14.60;97.90;;;;;;5011652;28;20022;-75
2021/10/27 04:34:59;;;;;;;5.13;2.60;;;14.70;97.90;;;;;;5011098;28;20112;-75
2021/10/27 04:37:26;;;;;;;4.65;2.20;;;14.60;97.80;;;;;;5010720;28;20117;-74
2021/10/27 04:39:52;;;;;;;5.82;2.47;;;14.60;97.80;;;;;;5011246;28;20050;-75
2021/10/27 04:42:18;;;;;;;3.75;2.10;;;14.60;97.80;;;;;;5011967;28;20353;-76
2021/10/27 04:44:43;;;;;;;4.60;2.40;;;14.60;97.80;;;;;;5009953;28;20030;-75
2021/10/27 04:47:09;;;;;;;4.20;2.30;;;14.60;98.10;;;;;;5010558;28;20030;-76
2021/10/27 04:49:35;;;;;;;8.10;3.30;;;14.60;97.80;;;;;;5011912;28;20025;-76
2021/10/27 04:52:00;;;;;;;5.45;2.75;;;14.60;97.70;;;;;;5012002;28;20022;-75
2021/10/27 04:54:26;;;;;;;5.70;2.25;;;14.60;97.70;;;;;;5014574;28;20026;-75
2021/10/27 04:56:52;;;;;;;5.57;2.40;;;14.60;97.70;;;;;;5013730;28;20359;-76
2021/10/27 04:59:18;;;;;;;4.72;2.42;;;14.70;97.70;;;;;;5014244;28;20020;-76
2021/10/27 05:01:47;;;;;;;3.80;1.70;;;14.60;97.70;;;;;;5015110;28;20022;-76
2021/10/27 05:04:15;;;;;;;5.75;2.08;;;14.60;97.70;;;;;;5015524;28;20025;-75
2021/10/27 05:06:42;;;;;;;4.53;2.13;;;14.60;97.70;;;;;;5013585;28;20133;-76
2021/10/27 05:09:09;;;;;;;5.20;1.90;;;14.70;97.90;;;;;;5015405;28;20045;-75
2021/10/27 05:11:34;;;;;;;5.22;2.25;;;14.70;97.70;;;;;;5015379;28;20022;-75
2021/10/27 05:14:01;;;;;;;4.13;2.35;;;14.70;97.70;;;;;;5014471;28;20109;-75
2021/10/27 05:16:26;;;;;;;5.43;2.45;;;14.70;97.60;;;;;;5014106;28;20030;-76
2021/10/27 05:18:52;;;;;;;5.43;1.90;;;14.70;97.60;;;;;;5014371;28;20026;-76
2021/10/27 05:21:18;;;;;;;4.32;2.15;;;14.70;97.60;;;;;;5015654;28;20344;-76
2021/10/27 05:23:43;;;;;;;6.35;2.33;;;14.70;97.60;;;;;;5014532;28;20061;-77
2021/10/27 05:26:09;;;;;;;6.38;2.60;;;14.60;97.60;;;;;;5013834;28;20120;-76
2021/10/27 05:28:35;;;;;;;4.55;2.10;;;14.70;97.60;;;;;;5015147;28;20026;-76
2021/10/27 05:31:00;;;;;;;8.02;2.47;;;14.70;97.50;;;;;;5014053;28;20022;-76
2021/10/27 05:33:26;;;;;;;6.57;2.35;;;14.70;97.50;;;;;;5013717;28;20030;-76
2021/10/27 05:35:52;;;;;;;5.88;2.10;;;14.70;97.60;;;;;;5014406;28;20022;-75
2021/10/27 05:38:17;;;;;;;5.45;2.20;;;14.70;97.50;;;;;;5015052;28;20033;-75
2021/10/27 05:40:43;;;;;;;5.03;2.10;;;14.70;97.60;;;;;;5012662;28;20077;-77
2021/10/27 05:43:11;;;;;;;5.10;2.05;;;14.60;97.50;;;;;;5013198;28;20109;-77
2021/10/27 05:45:38;;;;;;;4.38;2.00;;;14.70;97.50;;;;;;5014768;28;20505;-77
2021/10/27 05:48:05;;;;;;;5.32;1.92;;;14.70;97.50;;;;;;5013969;28;20018;-77
2021/10/27 05:55:41;;;;;;;4.65;2.42;;;14.70;97.50;;;;;;5014197;28;20041;-77
2021/10/27 05:58:09;;;;;;;6.45;2.47;;;14.60;97.50;;;;;;5013217;28;20520;-75
2021/10/27 06:00:37;;;;;;;3.80;1.88;;;14.60;97.50;;;;;;5013090;28;20018;-75
2021/10/27 06:03:03;;;;;;;7.32;2.75;;;14.60;97.50;;;;;;5012389;28;20037;-75
2021/10/27 06:05:30;;;;;;;7.55;2.72;;;14.60;97.50;;;;;;5012967;28;20390;-76
2021/10/27 06:07:56;;;;;;;5.60;2.50;;;14.60;97.50;;;;;;5012484;28;20065;-75
2021/10/27 06:10:23;;;;;;;10.25;3.17;;;14.60;97.50;;;;;;5014379;28;20022;-75
2021/10/27 06:12:52;;;;;;;5.18;3.00;;;14.60;97.50;;;;;;5013430;28;20075;-75
2021/10/27 06:15:19;;;;;;;4.80;2.42;;;14.60;97.40;;;;;;5012906;28;20458;-75
2021/10/27 06:17:46;;;;;;;6.30;2.80;;;14.60;97.40;;;;;;5012210;28;20022;-76
2021/10/27 06:20:13;;;;;;;7.80;2.80;;;14.60;97.40;;;;;;5012820;28;20418;-75
2021/10/27 06:22:40;;;;;;;5.15;2.60;;;14.60;97.40;;;;;;5014130;28;20030;-75
2021/10/27 06:25:09;;;;;;;4.97;2.50;;;14.60;97.40;;;;;;5013413;28;20018;-75
2021/10/27 06:27:35;;;;;;;6.10;2.90;;;14.60;97.50;;;;;;5013943;28;20021;-75
2021/10/27 06:30:10;;;;;;;4.68;2.58;;;14.60;97.40;;;;;;5011955;28;20026;-75
2021/10/27 06:35:11;;;;;;;6.60;2.60;;;14.60;97.40;;;;;;5013150;28;20434;-75
2021/10/27 06:48:38;;;;;;;9.05;2.95;;;14.50;97.40;;;;;;5013709;28;20049;-76
2021/10/27 06:51:04;;;;;;;7.72;3.17;;;14.50;97.40;;;;;;5012793;28;20445;-75
2021/10/27 06:53:31;;;;;;;6.03;2.60;;;14.50;97.30;;;;;;5013274;28;20025;-75
2021/10/27 06:55:57;;;;;;;6.03;2.92;;;14.50;97.30;;;;;;5012421;28;20022;-74
2021/10/27 06:58:23;;;;;;;6.22;2.45;;;14.50;97.40;;;;;;5011977;28;20025;-75
2021/10/27 07:00:54;;;;;;;9.57;2.80;;;14.60;97.40;;;;;;5011420;28;20029;-76
2021/10/27 07:03:47;;;;;;;11.20;2.72;;;14.50;97.30;;;;;;5013210;28;20030;-76
2021/10/27 07:17:09;;;;;;;6.82;2.67;;;14.50;97.20;;;;;;5012352;28;20176;-77
2021/10/27 07:19:35;;;;;;;5.90;2.70;;;14.60;97.20;;;;;;5012751;28;20544;-77
2021/10/27 07:22:00;;;;;;;7.30;2.72;;;14.60;97.20;;;;;;5010396;28;20113;-75
2021/10/27 07:24:27;;;;;;;7.35;3.13;;;14.60;97.20;;;;;;5011301;28;20529;-75
2021/10/27 07:26:53;;;;;;;5.60;2.63;;;14.60;97.20;;;;;;5012176;28;20018;-75
2021/10/27 07:29:20;;;;;;;6.63;3.03;;;14.50;97.10;;;;;;5011416;28;20406;-75
2021/10/27 07:31:49;;;;;;;6.53;2.83;;;14.60;97.40;;;;;;5012375;28;20400;-75
2021/10/27 07:34:15;;;;;;;5.35;3.08;;;14.50;97.10;;;;;;5012632;28;20026;-75
2021/10/27 07:41:51;;;;;;;6.68;3.03;;;14.60;97.00;;;;;;5011793;28;20048;-77
2021/10/27 07:44:18;;;;;;;10.27;4.03;;;14.60;97.10;;;;;;5012626;28;20394;-77
2021/10/27 07:46:44;;;;;;;7.13;3.33;;;14.50;97.00;;;;;;5011230;28;20026;-77
2021/10/27 07:49:10;;;;;;;6.22;3.55;;;14.60;97.00;;;;;;5010631;28;20022;-77
2021/10/27 07:51:37;;;;;;;6.40;3.13;;;14.60;96.90;;;;;;5012254;28;20022;-77
2021/10/27 07:54:04;;;;;;;10.18;3.65;;;14.60;96.90;;;;;;5010467;28;20032;-77
2021/10/27 07:56:32;;;;;;;10.25;3.63;;;14.70;96.90;;;;;;5012529;28;20040;-77
2021/10/27 07:58:58;;;;;;;8.52;3.60;;;14.60;96.90;;;;;;5011900;28;20029;-77
2021/10/27 08:01:24;;;;;;;7.30;3.05;;;14.60;96.90;;;;;;5012277;28;20017;-77
2021/10/27 08:03:50;;;;;;;7.28;4.00;;;14.60;96.80;;;;;;5011636;28;20458;-78
2021/10/27 08:06:16;;;;;;;7.65;3.53;;;14.60;96.80;;;;;;5011122;28;20022;-77
2021/10/27 08:08:41;;;;;;;10.43;4.40;;;14.60;96.80;;;;;;5010859;28;20481;-77
2021/10/27 08:11:08;;;;;;;7.97;3.35;;;14.60;96.80;;;;;;5011590;28;20092;-77
2021/10/27 08:13:35;;;;;;;8.52;3.83;;;14.60;96.80;;;;;;5011043;28;20129;-77
2021/10/27 08:16:00;;;;;;;7.97;3.85;;;14.60;96.80;;;;;;5011579;28;20025;-77
2021/10/27 08:18:26;;;;;;;6.82;3.88;;;14.70;96.80;;;;;;5012208;28;20049;-77
2021/10/27 08:20:52;;;;;;;7.47;3.55;;;14.70;96.70;;;;;;5010325;28;20029;-77
2021/10/27 08:23:20;;;;;;;11.55;4.78;;;14.70;96.70;;;;;;5012001;28;20034;-77
2021/10/27 08:25:51;;;;;;;9.30;3.92;;;14.80;96.60;;;;;;5010888;28;20033;-77
2021/10/27 08:28:21;;;;;;;8.50;3.92;;;14.80;96.60;;;;;;5015295;28;20037;-77
2021/10/27 08:30:55;;;;;;;9.05;4.15;;;14.90;96.50;;;;;;5016461;28;20053;-77
2021/10/27 08:33:25;;;;;;;9.10;4.25;;;14.90;96.50;;;;;;5016332;28;20029;-77
2021/10/27 08:35:51;;;;;;;7.05;4.03;;;14.90;96.40;;;;;;5016215;28;20014;-77
2021/10/27 08:38:17;;;;;;;7.28;3.90;;;15.00;96.40;;;;;;5015460;28;20053;-77
2021/10/27 08:40:46;;;;;;;9.32;4.15;;;15.00;96.30;;;;;;5015603;28;20127;-76
2021/10/27 08:43:12;;;;;;;7.05;3.40;;;14.90;96.40;;;;;;5015197;28;20038;-75
2021/10/27 08:45:42;;;;;;;7.70;3.33;;;14.90;96.40;;;;;;5015712;28;20498;-75
2021/10/27 08:48:12;;;;;;;12.45;5.20;;;14.90;96.50;;;;;;5015183;28;20034;-76
2021/10/27 08:50:39;;;;;;;8.77;4.70;;;14.90;96.50;;;;;;5015779;28;20026;-76
2021/10/27 08:53:06;;;;;;;12.10;4.10;;;14.90;96.50;;;;;;5013609;28;20041;-76
2021/10/27 08:55:33;;;;;;;11.48;4.55;;;14.90;96.50;;;;;;5015640;28;20025;-77
2021/10/27 08:58:00;;;;;;;4.47;2.67;;;14.90;96.50;;;;;;5015047;28;20462;-74
2021/10/27 09:05:41;;;;;;;8.63;4.10;;;15.00;96.40;;;;;;5015543;28;20042;-75
2021/10/27 10:06:30;;;;;;;11.68;5.15;;;15.70;95.60;;;;;;5014562;28;20037;-77
2021/10/27 10:08:57;;;;;;;8.25;5.18;;;15.70;95.50;;;;;;5014432;28;20110;-76
2021/10/27 10:11:24;;;;;;;10.20;4.82;;;15.70;95.30;;;;;;5013532;28;20022;-76
2021/10/27 10:13:52;;;;;;;7.40;4.55;;;15.70;95.40;;;;;;5013092;28;20088;-77
2021/10/27 10:16:19;;;;;;;10.70;5.05;;;15.80;95.40;;;;;;5012302;28;20025;-77
2021/10/27 10:18:46;;;;;;;10.07;5.13;;;15.80;95.30;;;;;;5014227;28;20041;-77
2021/10/27 10:21:13;;;;;;;9.77;5.07;;;15.80;95.20;;;;;;5012344;28;20022;-77
2021/10/27 10:23:39;;;;;;;10.10;4.55;;;15.80;95.20;;;;;;5012679;28;20485;-77
2021/10/27 10:26:08;;;;;;;8.68;5.15;;;15.90;95.10;;;;;;5013341;28;20022;-77
2021/10/27 10:28:39;;;;;;;8.90;5.18;;;15.90;95.10;;;;;;5013739;28;20018;-77
2021/10/27 10:31:07;;;;;;;;;;;16.00;94.90;;;;;;5013876;28;20026;-77
2021/10/27 10:33:44;;;;;;;10.57;5.53;;;16.00;94.90;;;;;;5013990;28;20308;-76
2021/10/27 10:36:30;;;;;;;8.13;4.47;;;16.00;94.90;;;;;;5013358;28;20022;-77
2021/10/27 10:41:49;;;;;;;10.32;4.55;;;16.10;94.70;;;;;;5013263;28;20073;-75
2021/10/27 11:38:23;;;;;;;5.10;2.95;;;16.50;93.60;;;;;;5012307;28;20120;-75
2021/10/27 11:40:55;;;;;;;7.47;3.50;;;16.50;93.50;;;;;;5011367;28;20085;-77
2021/10/27 11:43:43;;;;;;;5.40;3.15;;;16.50;93.50;;;;;;5010992;28;20437;-77
2021/10/27 11:46:11;;;;;;;4.50;2.90;;;16.50;93.50;;;;;;5012384;28;20018;-73
2021/10/27 11:51:13;;;;;;;7.10;3.63;;;16.50;93.50;;;;;;5012023;28;20121;-74
2021/10/27 11:53:47;;;;;;;11.57;3.95;;;16.50;93.40;;;;;;5012575;28;20025;-75
2021/10/27 11:56:21;;;;;;;4.95;2.88;;;16.50;93.40;;;;;;5010659;28;20037;-76
2021/10/27 11:59:00;;;;;;;7.05;3.40;;;16.50;93.40;;;;;;5011303;28;20332;-77
2021/10/27 12:01:34;;;;;;;5.97;2.83;;;16.60;93.30;;;;;;5010429;28;20018;-76
2021/10/27 12:04:01;;;;;;;5.57;3.08;;;16.60;93.30;;;;;;5011107;28;20437;-75
2021/10/27 12:14:22;;;;;;;6.60;3.75;;;16.60;93.00;;;;;;5012307;28;20033;-76
2021/10/27 12:19:22;;;;;;;7.10;3.50;;;16.70;92.90;;;;;;5011606;28;20030;-75
2021/10/27 12:21:47;;;;;;;7.53;3.35;;;16.60;92.90;;;;;;5012164;28;20032;-76
2021/10/27 12:24:18;;;;;;;7.18;3.88;;;16.60;92.90;;;;;;5011632;28;20045;-75
2021/10/27 12:27:08;;;;;;;7.20;3.85;;;16.70;93.00;;;;;;5012219;28;20033;-75
2021/10/27 12:29:36;;;;;;;6.57;3.63;;;16.70;92.90;;;;;;5010341;28;20029;-75
2021/10/27 12:32:13;;;;;;;8.25;4.00;;;16.70;92.80;;;;;;5010429;28;20022;-76
2021/10/27 12:35:06;;;;;;;6.45;3.22;;;16.80;92.80;;;;;;5010902;28;20030;-76
2021/10/27 12:43:02;;;;;;;7.85;3.25;;;16.90;92.60;;;;;;5012278;28;20030;-76
2021/10/27 12:45:47;;;;;;;5.07;3.30;;;16.90;92.60;;;;;;5011462;28;20030;-77
2021/10/27 12:48:17;;;;;;;5.30;3.55;;;16.90;92.60;;;;;;5011428;28;20343;-76
2021/10/27 12:50:55;;;;;;;9.47;4.13;;;16.80;92.70;;;;;;5012028;28;20021;-76
2021/10/27 12:53:35;;;;;;;8.73;4.00;;;16.90;92.70;;;;;;5009980;28;20076;-77
2021/10/27 12:56:04;;;;;;;8.55;3.70;;;16.90;92.60;;;;;;5010576;28;20026;-77
2021/10/27 12:58:33;;;;;;;6.93;3.75;;;16.90;92.60;;;;;;5011222;28;20033;-75
2021/10/27 13:30:16;;;;;;;7.60;3.75;;;17.10;91.90;;;;;;5015077;28;20044;-76
2021/10/27 13:32:50;;;;;;;9.18;4.15;;;17.00;91.80;;;;;;5013979;28;20113;-77
2021/10/27 13:35:16;;;;;;;6.28;3.88;;;17.00;92.00;;;;;;5013126;28;20029;-76
2021/10/27 13:37:41;;;;;;;5.43;2.85;;;17.00;92.00;;;;;;5014967;28;20084;-76
2021/10/27 13:40:08;;;;;;;6.63;3.55;;;17.00;92.10;;;;;;5014849;28;20541;-76
2021/10/27 13:42:44;;;;;;;6.97;3.55;;;17.00;92.10;;;;;;5013092;28;20217;-76
2021/10/27 13:46:20;;;;;;;6.35;3.63;;;17.00;92.10;;;;;;5013469;28;20429;-77
2021/10/27 14:06:50;;;;;;;7.78;3.88;;;16.80;91.70;;;;;;5014694;28;20036;-75
2021/10/27 14:12:10;;;;;;;6.20;2.90;;;16.80;91.40;;;;;;5013928;28;20072;-75
2021/10/27 14:14:54;;;;;;;;;;;16.80;91.50;;;;;;5012906;28;20771;-76
2021/10/27 14:40:13;;;;;;;4.75;2.80;;;16.40;91.70;;;;;;5013929;28;20068;-74
2021/10/27 15:20:41;;;;;;;4.72;3.28;;;16.10;92.40;;;;;;5012181;28;20148;-75
2021/10/27 15:23:15;;;;;;;5.60;2.95;;;16.00;92.40;;;;;;5013192;28;20026;-75
2021/10/27 15:28:37;;;;;;;4.82;2.60;;;15.90;92.50;;;;;;5013139;28;20040;-75
2021/10/27 15:41:28;;;;;;;5.25;2.50;;;15.80;92.80;;;;;;5012731;28;20116;-75
2021/10/27 15:51:49;;;;;;;6.93;2.80;;;15.70;93.10;;;;;;5012000;28;20124;-76
2021/10/27 15:54:15;;;;;;;5.50;2.78;;;15.70;93.20;;;;;;5012686;28;20045;-74
2021/10/27 15:56:42;;;;;;;4.13;2.33;;;15.70;93.20;;;;;;5010527;28;20073;-75
2021/10/27 15:59:08;;;;;;;6.95;3.10;;;15.60;93.20;;;;;;5012383;28;20022;-75
2021/10/27 16:01:34;;;;;;;4.57;2.60;;;15.60;93.30;;;;;;5010475;28;20108;-75
2021/10/27 16:03:59;;;;;;;4.40;2.30;;;15.60;93.40;;;;;;5011425;28;20438;-75
2021/10/27 16:06:27;;;;;;;7.47;2.58;;;15.50;93.50;;;;;;5011501;28;20385;-75
2021/10/27 16:08:57;;;;;;;5.35;2.47;;;15.50;93.60;;;;;;5012312;28;20022;-75
2021/10/27 16:11:23;;;;;;;7.13;2.70;;;15.50;93.70;;;;;;5011119;28;20079;-75
2021/10/27 16:13:49;;;;;;;6.05;2.67;;;15.40;93.70;;;;;;5010375;28;20505;-75
2021/10/27 16:16:16;;;;;;;4.18;2.30;;;15.40;93.80;;;;;;5010825;28;20026;-75
2021/10/27 16:18:43;;;;;;;3.80;2.10;;;15.30;93.90;;;;;;5010273;28;20014;-75
2021/10/27 16:21:09;;;;;;;4.53;2.75;;;15.30;93.90;;;;;;5012129;28;20022;-74
2021/10/27 16:23:36;;;;;;;4.60;2.58;;;15.30;94.00;;;;;;5011501;28;20029;-74
2021/10/27 16:26:02;;;;;;;8.48;3.08;;;15.20;94.10;;;;;;5010759;28;20103;-74
2021/10/27 16:28:28;;;;;;;3.35;2.30;;;15.20;94.10;;;;;;5010159;28;20018;-75
2021/10/27 16:30:55;;;;;;;5.40;2.25;;;15.20;94.20;;;;;;5012135;28;20052;-75
2021/10/27 16:33:22;;;;;;;4.97;2.25;;;15.10;94.20;;;;;;5010629;28;20036;-75
2021/10/27 16:35:51;;;;;;;6.10;2.40;;;15.10;94.20;;;;;;5011344;28;20037;-75
2021/10/27 16:38:18;;;;;;;6.40;2.35;;;15.10;94.30;;;;;;5000842;28;20018;-74
2021/10/27 16:40:45;;;;;;;4.15;2.47;;;15.10;94.40;;;;;;5020778;28;20112;-74
2021/10/27 16:43:12;;;;;;;8.13;2.70;;;15.00;94.40;;;;;;5009528;28;20156;-74
2021/10/27 16:45:37;;;;;;;2.30;1.52;;;15.00;94.50;;;;;;5002251;28;20018;-74
2021/10/27 16:48:04;;;;;;;5.95;2.60;;;15.00;94.50;;;;;;4992703;28;20022;-75
2021/10/27 16:50:31;;;;;;;4.57;2.55;;;14.90;94.50;;;;;;4997785;28;20018;-75
2021/10/27 16:52:58;;;;;;;5.63;2.40;;;14.90;94.60;;;;;;5021736;28;20295;-75
2021/10/27 16:55:24;;;;;;;3.65;2.40;;;14.90;94.70;;;;;;4992555;28;20451;-75
2021/10/27 16:57:54;;;;;;;4.95;2.42;;;14.90;94.70;;;;;;4993534;28;20026;-76
2021/10/27 17:00:23;;;;;;;6.20;2.42;;;14.90;94.70;;;;;;5009132;28;20014;-76
2021/10/27 17:02:48;;;;;;;4.30;2.25;;;14.80;94.70;;;;;;4993560;28;20031;-77
2021/10/27 17:05:14;;;;;;;6.45;2.80;;;14.80;94.80;;;;;;4993946;28;20084;-77
2021/10/27 17:07:40;;;;;;;5.35;3.00;;;14.80;94.80;;;;;;5010173;28;20025;-75
2021/10/27 17:10:09;;;;;;;6.85;2.50;;;14.80;94.80;;;;;;5013256;28;20014;-75
2021/10/27 17:12:35;;;;;;;6.22;2.08;;;14.70;94.80;;;;;;4996739;28;20031;-76
2021/10/27 17:15:02;;;;;;;6.28;2.50;;;14.70;94.90;;;;;;4993872;28;20033;-76
2021/10/27 17:17:28;;;;;;;4.53;2.22;;;14.70;94.90;;;;;;4992065;28;20083;-80
2021/10/27 17:19:55;;;;;;;4.78;2.40;;;14.70;94.90;;;;;;5008840;28;20106;-76
2021/10/27 17:22:27;;;;;;;3.80;2.45;;;14.70;95.00;;;;;;5008066;28;20121;-76
2021/10/27 17:24:53;;;;;;;4.72;2.17;;;14.70;95.00;;;;;;5008103;28;20057;-76
2021/10/27 17:27:19;;;;;;;4.20;2.13;;;14.70;95.00;;;;;;5008532;28;20022;-75
2021/10/27 17:29:44;;;;;;;6.00;2.05;;;14.60;95.00;;;;;;5008048;28;20022;-76
2021/10/27 17:32:10;;;;;;;5.57;2.17;;;14.60;95.00;;;;;;4993590;28;20030;-75
2021/10/27 17:34:36;;;;;;;4.75;2.42;;;14.60;95.00;;;;;;4992328;28;20027;-75
2021/10/27 17:37:02;;;;;;;6.20;2.55;;;14.60;95.10;;;;;;5007993;28;20014;-75
2021/10/27 17:39:30;;;;;;;4.13;2.40;;;14.50;95.10;;;;;;5008106;28;20023;-78
2021/10/27 17:41:58;;;;;;;4.60;2.20;;;14.50;95.10;;;;;;5008311;28;20018;-76
2021/10/27 17:44:25;;;;;;;5.13;2.22;;;14.50;95.10;;;;;;5008175;28;20030;-76
2021/10/27 17:46:58;;;;;;;5.43;2.20;;;14.50;95.20;;;;;;5007139;28;20030;-76
2021/10/27 17:51:59;;;;;;;6.70;2.85;;;14.40;95.20;;;;;;4992443;28;20053;-77
2021/10/27 18:00:06;;;;;;;5.35;3.47;;;14.40;95.30;;;;;;4992256;28;20031;-76
2021/10/27 18:02:34;;;;;;;6.75;3.55;;;14.30;95.30;;;;;;4992195;28;20447;-77
2021/10/27 18:05:02;;;;;;;7.63;3.40;;;14.30;95.30;;;;;;4992807;28;20061;-76